createdAt,value
2022-09-18T00:00:49.974Z,9.80
2022-09-18T00:03:54.222Z,9.80
2022-09-18T00:06:56.258Z,9.80
2022-09-18T00:09:58.288Z,9.70
2022-09-18T00:13:00.443Z,9.80
2022-09-18T00:16:02.869Z,9.70
2022-09-18T00:19:05.536Z,9.70
2022-09-18T00:22:07.592Z,9.70
2022-09-18T00:25:09.804Z,9.80
2022-09-18T00:28:11.827Z,9.80
2022-09-18T00:31:20.487Z,9.80
2022-09-18T00:34:22.603Z,9.80
2022-09-18T00:37:24.668Z,9.80
2022-09-18T00:40:26.839Z,9.70
2022-09-18T00:43:32.685Z,9.70
2022-09-18T00:46:36.200Z,9.70
2022-09-18T00:49:49.420Z,9.60
2022-09-18T00:53:02.053Z,9.60
2022-09-18T00:56:04.215Z,9.60
2022-09-18T00:59:06.271Z,9.50
2022-09-18T01:02:08.566Z,9.40
2022-09-18T01:05:10.857Z,9.40
2022-09-18T01:09:00.151Z,9.40
2022-09-18T01:12:26.122Z,9.40
2022-09-18T01:15:41.469Z,9.50
2022-09-18T01:19:10.761Z,9.50
2022-09-18T01:22:44.040Z,9.70
2022-09-18T01:26:33.047Z,9.80
2022-09-18T01:29:52.071Z,9.80
2022-09-18T01:33:00.961Z,9.70
2022-09-18T01:36:07.623Z,9.80
2022-09-18T01:39:39.942Z,9.80
2022-09-18T01:42:43.298Z,9.80
2022-09-18T01:45:47.898Z,9.90
2022-09-18T01:48:58.418Z,9.80
2022-09-18T01:52:28.021Z,9.70
2022-09-18T01:55:30.264Z,9.80
2022-09-18T01:58:33.565Z,9.80
2022-09-18T02:01:36.089Z,9.80
2022-09-18T02:04:39.135Z,9.80
2022-09-18T02:08:11.693Z,9.90
2022-09-18T02:11:15.216Z,9.90
2022-09-18T02:14:30.154Z,9.80
2022-09-18T02:18:13.995Z,9.80
2022-09-18T02:21:20.652Z,9.80
2022-09-18T02:24:26.283Z,9.80
2022-09-18T02:27:28.334Z,9.70
2022-09-18T02:30:31.870Z,9.70
2022-09-18T02:33:36.685Z,9.80
2022-09-18T02:36:45.525Z,9.80
2022-09-18T02:40:03.698Z,9.80
2022-09-18T02:43:17.792Z,9.80
2022-09-18T02:46:37.840Z,9.80
2022-09-18T02:50:13.598Z,9.90
2022-09-18T02:53:50.267Z,9.90
2022-09-18T02:57:44.122Z,9.90
2022-09-18T03:00:47.632Z,9.90
2022-09-18T03:03:52.693Z,9.90
2022-09-18T03:07:00.990Z,9.90
2022-09-18T03:10:03.630Z,9.90
2022-09-18T03:13:07.018Z,9.90
2022-09-18T03:16:09.327Z,9.90
2022-09-18T03:19:12.111Z,9.90
2022-09-18T03:22:14.246Z,9.90
2022-09-18T03:25:17.520Z,9.90
2022-09-18T03:28:19.868Z,9.90
2022-09-18T03:31:22.112Z,9.80
2022-09-18T03:34:24.210Z,9.90
2022-09-18T03:37:26.470Z,9.80
2022-09-18T03:40:29.385Z,9.90
2022-09-18T03:43:32.321Z,9.80
2022-09-18T03:46:34.469Z,9.80
2022-09-18T03:49:38.268Z,9.90
2022-09-18T03:52:40.347Z,9.80
2022-09-18T03:56:04.359Z,9.90
2022-09-18T03:59:24.617Z,9.80
2022-09-18T04:02:29.383Z,9.90
2022-09-18T04:06:09.800Z,9.90
2022-09-18T04:09:32.093Z,9.90
2022-09-18T04:12:35.154Z,10.00
2022-09-18T04:15:51.129Z,10.00
2022-09-18T04:18:53.253Z,9.90
2022-09-18T04:21:57.267Z,9.90
2022-09-18T04:24:59.427Z,9.80
2022-09-18T04:28:02.342Z,9.80
2022-09-18T04:31:05.466Z,9.80
2022-09-18T04:34:07.621Z,9.90
2022-09-18T04:37:10.749Z,9.90
2022-09-18T04:40:14.206Z,9.90
2022-09-18T04:43:16.883Z,10.00
2022-09-18T04:46:19.985Z,10.00
2022-09-18T04:49:22.371Z,10.00
2022-09-18T04:52:25.071Z,10.00
2022-09-18T04:55:27.735Z,10.00
2022-09-18T04:58:31.031Z,10.00
2022-09-18T05:01:36.413Z,10.00
2022-09-18T05:04:43.978Z,9.90
2022-09-18T05:07:59.663Z,9.90
2022-09-18T05:11:02.203Z,10.00
2022-09-18T05:14:08.099Z,10.00
2022-09-18T05:17:10.774Z,10.00
2022-09-18T05:20:15.034Z,9.90
2022-09-18T05:23:17.809Z,10.00
2022-09-18T05:26:19.877Z,9.90
2022-09-18T05:29:22.090Z,9.90
2022-09-18T05:32:26.046Z,9.90
2022-09-18T05:35:30.646Z,9.80
2022-09-18T05:38:34.147Z,9.90
2022-09-18T05:41:37.526Z,9.90
2022-09-18T05:44:39.659Z,10.00
2022-09-18T05:48:00.851Z,10.00
2022-09-18T05:51:05.257Z,10.00
2022-09-18T05:54:07.462Z,10.10
2022-09-18T05:57:16.050Z,10.10
2022-09-18T06:00:24.790Z,10.10
2022-09-18T06:03:36.162Z,10.10
2022-09-18T06:06:38.352Z,10.10
2022-09-18T06:09:40.468Z,10.20
2022-09-18T06:12:42.728Z,10.20
2022-09-18T06:15:50.292Z,10.20
2022-09-18T06:18:56.847Z,10.20
2022-09-18T06:21:58.917Z,10.30
2022-09-18T06:25:01.546Z,10.30
2022-09-18T06:28:07.791Z,10.20
2022-09-18T06:31:10.426Z,10.20
2022-09-18T06:34:36.636Z,10.20
2022-09-18T06:37:42.058Z,10.20
2022-09-18T06:40:58.093Z,10.20
2022-09-18T06:44:08.698Z,10.20
2022-09-18T06:47:24.147Z,10.20
2022-09-18T06:50:26.320Z,10.20
2022-09-18T06:53:28.640Z,10.20
2022-09-18T06:56:36.000Z,10.20
2022-09-18T06:59:38.598Z,10.20
2022-09-18T07:02:42.217Z,10.20
2022-09-18T07:06:10.339Z,10.30
2022-09-18T07:09:21.994Z,10.30
2022-09-18T07:12:37.622Z,10.30
2022-09-18T07:15:41.702Z,10.40
2022-09-18T07:18:48.349Z,10.40
2022-09-18T07:21:53.927Z,10.40
2022-09-18T07:24:56.043Z,10.40
2022-09-18T07:28:08.233Z,10.50
2022-09-18T07:31:16.698Z,10.50
2022-09-18T07:34:20.032Z,10.60
2022-09-18T07:37:22.343Z,10.60
2022-09-18T07:40:33.858Z,10.70
2022-09-18T07:43:43.771Z,10.70
2022-09-18T07:46:46.044Z,10.80
2022-09-18T07:49:48.270Z,10.80
2022-09-18T07:52:56.461Z,10.90
2022-09-18T07:56:10.021Z,11.10
2022-09-18T07:59:12.635Z,11.40
2022-09-18T08:02:15.272Z,11.40
2022-09-18T08:05:17.602Z,11.30
2022-09-18T08:08:30.095Z,11.20
2022-09-18T08:11:52.690Z,11.10
2022-09-18T08:15:02.486Z,11.20
2022-09-18T08:18:22.865Z,11.30
2022-09-18T08:21:43.289Z,11.40
2022-09-18T08:24:48.019Z,11.30
2022-09-18T08:27:50.449Z,11.30
2022-09-18T08:31:01.936Z,11.40
2022-09-18T08:34:04.229Z,11.40
2022-09-18T08:37:07.055Z,11.50
2022-09-18T08:41:05.817Z,11.40
2022-09-18T08:44:18.456Z,11.50
2022-09-18T08:47:43.380Z,11.50
2022-09-18T08:51:16.949Z,11.60
2022-09-18T08:54:49.292Z,11.60
2022-09-18T08:58:24.604Z,11.70
2022-09-18T09:01:43.378Z,11.60
2022-09-18T09:04:49.489Z,11.70
2022-09-18T09:08:23.239Z,11.90
2022-09-18T09:12:24.296Z,11.90
2022-09-18T09:16:01.582Z,12.20
2022-09-18T09:19:45.231Z,12.30
2022-09-18T09:23:04.164Z,12.40
2022-09-18T09:26:21.809Z,12.30
2022-09-18T09:29:45.042Z,12.60
2022-09-18T09:33:27.947Z,12.80
2022-09-18T09:36:42.305Z,12.80
2022-09-18T09:39:52.698Z,12.80
2022-09-18T09:43:01.216Z,12.80
2022-09-18T09:46:35.807Z,12.80
2022-09-18T09:49:46.652Z,12.80
2022-09-18T09:52:48.920Z,12.80
2022-09-18T09:56:16.143Z,12.90
2022-09-18T09:59:47.863Z,13.10
2022-09-18T10:03:05.144Z,12.90
2022-09-18T10:06:29.695Z,12.80
2022-09-18T10:09:43.743Z,13.00
2022-09-18T10:13:05.390Z,13.00
2022-09-18T10:16:20.328Z,12.90
2022-09-18T10:19:28.540Z,12.90
2022-09-18T10:22:30.934Z,12.90
2022-09-18T10:25:54.204Z,12.90
2022-09-18T10:28:56.926Z,13.00
2022-09-18T10:32:01.070Z,13.20
2022-09-18T10:35:29.182Z,13.30
2022-09-18T10:38:34.359Z,13.30
2022-09-18T10:42:07.170Z,13.20
2022-09-18T10:45:29.133Z,13.10
2022-09-18T10:48:53.146Z,13.20
2022-09-18T10:52:25.302Z,13.10
2022-09-18T10:55:28.367Z,13.10
2022-09-18T10:58:39.189Z,12.90
2022-09-18T11:01:44.658Z,12.90
2022-09-18T11:04:48.105Z,13.00
2022-09-18T11:07:55.055Z,12.80
2022-09-18T11:11:06.862Z,12.90
2022-09-18T11:14:30.184Z,13.00
2022-09-18T11:17:47.280Z,13.30
2022-09-18T11:20:50.030Z,13.30
2022-09-18T11:24:06.927Z,13.30
2022-09-18T11:27:46.187Z,13.30
2022-09-18T11:31:04.112Z,13.30
2022-09-18T11:34:47.181Z,13.60
2022-09-18T11:37:53.093Z,13.60
2022-09-18T11:40:57.523Z,13.60
2022-09-18T11:44:14.007Z,13.40
2022-09-18T11:47:41.264Z,13.40
2022-09-18T11:50:44.260Z,13.70
2022-09-18T11:53:55.426Z,14.00
2022-09-18T11:57:00.807Z,13.90
2022-09-18T12:00:16.234Z,14.00
2022-09-18T12:03:29.046Z,14.40
2022-09-18T12:06:58.799Z,14.30
2022-09-18T12:10:31.486Z,14.10
2022-09-18T12:13:40.023Z,13.90
2022-09-18T12:16:51.496Z,13.80
2022-09-18T12:19:58.561Z,13.80
2022-09-18T12:23:02.791Z,14.00
2022-09-18T12:26:12.476Z,14.10
2022-09-18T12:29:57.186Z,14.30
2022-09-18T12:33:26.623Z,14.00
2022-09-18T12:36:47.326Z,13.90
2022-09-18T12:40:04.201Z,13.90
2022-09-18T12:43:38.075Z,14.20
2022-09-18T12:46:59.886Z,14.50
2022-09-18T12:50:15.682Z,14.60
2022-09-18T12:54:06.959Z,14.40
2022-09-18T12:57:36.907Z,14.80
2022-09-18T13:00:41.163Z,14.90
2022-09-18T13:03:43.246Z,14.90
2022-09-18T13:06:55.407Z,14.60
2022-09-18T13:10:42.760Z,14.80
2022-09-18T13:14:05.720Z,14.80
2022-09-18T13:17:19.918Z,14.70
2022-09-18T13:20:34.439Z,14.80
2022-09-18T13:23:40.770Z,14.60
2022-09-18T13:26:42.909Z,14.80
2022-09-18T13:29:54.090Z,14.60
2022-09-18T13:32:57.761Z,14.50
2022-09-18T13:35:59.866Z,14.60
2022-09-18T13:39:14.829Z,14.60
2022-09-18T13:42:34.167Z,14.50
2022-09-18T13:45:37.975Z,14.40
2022-09-18T13:48:39.931Z,14.40
2022-09-18T13:51:42.084Z,14.50
2022-09-18T13:55:20.126Z,14.50
2022-09-18T13:58:31.707Z,14.60
2022-09-18T14:01:42.989Z,14.90
2022-09-18T14:04:48.475Z,14.80
2022-09-18T14:08:04.307Z,14.80
2022-09-18T14:11:16.255Z,14.70
2022-09-18T14:14:22.887Z,14.40
2022-09-18T14:17:25.798Z,14.10
2022-09-18T14:20:27.898Z,14.00
2022-09-18T14:23:35.890Z,14.20
2022-09-18T14:26:38.549Z,14.00
2022-09-18T14:29:40.871Z,14.00
2022-09-18T14:33:03.659Z,14.10
2022-09-18T14:36:06.481Z,14.20
2022-09-18T14:39:35.807Z,14.30
2022-09-18T14:42:40.136Z,14.40
2022-09-18T14:45:42.272Z,14.30
2022-09-18T14:48:44.363Z,14.40
2022-09-18T14:52:03.186Z,14.90
2022-09-18T14:55:12.211Z,15.50
2022-09-18T14:58:17.927Z,16.80
2022-09-18T15:01:31.604Z,17.00
2022-09-18T15:04:33.693Z,17.70
2022-09-18T15:07:38.166Z,18.00
2022-09-18T15:10:40.335Z,19.20
2022-09-18T15:13:42.443Z,18.10
2022-09-18T15:16:44.739Z,17.00
2022-09-18T15:20:22.731Z,16.40
2022-09-18T15:23:38.875Z,16.30
2022-09-18T15:26:48.256Z,17.90
2022-09-18T15:30:06.751Z,19.20
2022-09-18T15:33:18.815Z,19.20
2022-09-18T15:36:35.480Z,18.30
2022-09-18T15:39:42.509Z,16.80
2022-09-18T15:42:59.180Z,15.60
2022-09-18T15:46:11.857Z,15.60
2022-09-18T15:49:30.659Z,16.10
2022-09-18T15:52:55.116Z,15.10
2022-09-18T15:56:02.202Z,14.80
2022-09-18T15:59:07.252Z,14.70
2022-09-18T16:02:37.750Z,14.50
2022-09-18T16:05:40.556Z,14.30
2022-09-18T16:08:42.670Z,14.10
2022-09-18T16:11:46.141Z,14.10
2022-09-18T16:15:11.251Z,14.00
2022-09-18T16:18:16.209Z,13.80
2022-09-18T16:21:18.670Z,13.50
2022-09-18T16:24:30.867Z,13.50
2022-09-18T16:27:32.901Z,13.50
2022-09-18T16:30:37.315Z,13.40
2022-09-18T16:34:27.495Z,13.40
2022-09-18T16:37:31.000Z,13.20
2022-09-18T16:40:33.262Z,13.30
2022-09-18T16:43:35.876Z,13.20
2022-09-18T16:46:49.638Z,13.40
2022-09-18T16:49:51.786Z,13.40
2022-09-18T16:52:54.037Z,13.10
2022-09-18T16:55:57.360Z,12.90
2022-09-18T16:59:00.975Z,13.00
2022-09-18T17:02:04.508Z,12.80
2022-09-18T17:05:07.697Z,13.00
2022-09-18T17:08:09.867Z,12.90
2022-09-18T17:11:12.018Z,12.90
2022-09-18T17:14:14.066Z,12.90
2022-09-18T17:17:16.305Z,12.90
2022-09-18T17:20:18.934Z,12.90
2022-09-18T17:23:21.023Z,12.90
2022-09-18T17:26:23.316Z,13.00
2022-09-18T17:29:25.500Z,12.80
2022-09-18T17:32:27.546Z,12.80
2022-09-18T17:35:29.655Z,12.80
2022-09-18T17:38:33.891Z,12.70
2022-09-18T17:41:35.992Z,12.70
2022-09-18T17:44:38.074Z,12.60
2022-09-18T17:47:40.127Z,12.60
2022-09-18T17:50:42.163Z,12.30
2022-09-18T17:53:45.764Z,12.30
2022-09-18T17:56:47.859Z,12.30
2022-09-18T17:59:49.907Z,12.30
2022-09-18T18:02:52.107Z,12.30
2022-09-18T18:05:58.255Z,12.30
2022-09-18T18:09:00.710Z,12.30
2022-09-18T18:12:03.410Z,12.30
2022-09-18T18:15:06.127Z,12.10
2022-09-18T18:18:08.237Z,12.00
2022-09-18T18:21:10.750Z,11.90
2022-09-18T18:24:16.938Z,11.80
2022-09-18T18:27:21.070Z,12.00
2022-09-18T18:30:24.155Z,12.00
2022-09-18T18:33:26.221Z,12.10
2022-09-18T18:36:30.551Z,12.00
2022-09-18T18:39:32.668Z,12.00
2022-09-18T18:42:34.702Z,12.00
2022-09-18T18:45:37.499Z,11.90
2022-09-18T18:48:40.736Z,11.90
2022-09-18T18:51:48.126Z,11.90
2022-09-18T18:54:50.207Z,12.00
2022-09-18T18:57:52.730Z,12.00
2022-09-18T19:00:55.544Z,11.90
2022-09-18T19:04:09.354Z,11.70
2022-09-18T19:07:12.001Z,11.50
2022-09-18T19:10:14.992Z,11.10
2022-09-18T19:13:17.307Z,11.20
2022-09-18T19:16:19.839Z,10.90
2022-09-18T19:19:23.704Z,10.80
2022-09-18T19:22:25.813Z,10.60
2022-09-18T19:25:27.990Z,10.60
2022-09-18T19:28:30.787Z,10.60
2022-09-18T19:31:34.133Z,10.60
2022-09-18T19:34:36.289Z,10.60
2022-09-18T19:37:38.355Z,10.70
2022-09-18T19:40:40.569Z,10.60
2022-09-18T19:43:42.700Z,10.60
2022-09-18T19:46:46.259Z,10.50
2022-09-18T19:49:49.847Z,10.40
2022-09-18T19:52:52.072Z,10.30
2022-09-18T19:55:54.294Z,10.30
2022-09-18T19:58:56.362Z,10.30
2022-09-18T20:01:58.491Z,10.40
2022-09-18T20:05:01.993Z,10.30
2022-09-18T20:08:06.410Z,10.30
2022-09-18T20:11:08.790Z,10.30
2022-09-18T20:14:11.208Z,10.40
2022-09-18T20:17:13.605Z,10.40
2022-09-18T20:20:16.542Z,10.40
2022-09-18T20:23:18.962Z,10.40
2022-09-18T20:26:21.021Z,10.50
2022-09-18T20:29:23.104Z,10.50
2022-09-18T20:32:25.178Z,10.50
2022-09-18T20:35:27.218Z,10.40
2022-09-18T20:38:33.037Z,10.50
2022-09-18T20:41:35.726Z,10.60
2022-09-18T20:44:38.197Z,10.60
2022-09-18T20:47:40.342Z,10.60
2022-09-18T20:50:43.231Z,10.50
2022-09-18T20:53:46.493Z,10.50
2022-09-18T20:56:48.596Z,10.40
2022-09-18T20:59:51.161Z,10.40
2022-09-18T21:02:53.411Z,10.30
2022-09-18T21:06:12.768Z,10.20
2022-09-18T21:09:17.671Z,10.00
2022-09-18T21:12:19.818Z,9.90
2022-09-18T21:15:21.847Z,10.00
2022-09-18T21:18:24.013Z,10.00
2022-09-18T21:21:27.482Z,10.10
2022-09-18T21:24:30.735Z,10.10
2022-09-18T21:27:32.787Z,10.20
2022-09-18T21:30:34.851Z,10.20
2022-09-18T21:33:40.730Z,10.20
2022-09-18T21:36:46.022Z,10.20
2022-09-18T21:39:48.161Z,10.10
2022-09-18T21:42:50.698Z,10.10
2022-09-18T21:45:52.752Z,10.20
2022-09-18T21:48:55.924Z,10.20
2022-09-18T21:52:04.331Z,10.30
2022-09-18T21:55:06.906Z,10.20
2022-09-18T21:58:08.999Z,10.20
2022-09-18T22:01:19.644Z,10.20
2022-09-18T22:04:26.197Z,10.30
2022-09-18T22:07:28.990Z,10.30
2022-09-18T22:10:31.127Z,10.30
2022-09-18T22:13:33.258Z,10.20
2022-09-18T22:16:35.556Z,10.30
2022-09-18T22:19:41.306Z,10.20
2022-09-18T22:22:43.993Z,10.10
2022-09-18T22:25:46.075Z,10.20
2022-09-18T22:28:56.223Z,10.30
2022-09-18T22:31:59.544Z,10.40
2022-09-18T22:35:01.675Z,10.30
2022-09-18T22:38:03.778Z,10.30
2022-09-18T22:41:06.810Z,10.20
2022-09-18T22:44:09.348Z,10.30
2022-09-18T22:47:11.429Z,10.30
2022-09-18T22:50:13.564Z,10.30
2022-09-18T22:53:15.688Z,10.40
2022-09-18T22:56:18.611Z,10.50
2022-09-18T22:59:22.512Z,10.60
2022-09-18T23:02:24.697Z,10.60
2022-09-18T23:05:27.183Z,10.60
2022-09-18T23:08:31.867Z,10.60
2022-09-18T23:11:34.582Z,10.70
2022-09-18T23:14:36.703Z,10.70
2022-09-18T23:17:38.840Z,10.70
2022-09-18T23:20:41.010Z,10.60
2022-09-18T23:23:44.198Z,10.60
2022-09-18T23:26:47.879Z,10.60
2022-09-18T23:29:50.631Z,10.50
2022-09-18T23:32:52.727Z,10.60
2022-09-18T23:35:54.985Z,10.50
2022-09-18T23:39:05.219Z,10.50
2022-09-18T23:42:08.880Z,10.40
2022-09-18T23:45:11.253Z,10.40
2022-09-18T23:48:13.302Z,10.40
2022-09-18T23:51:16.176Z,10.30
2022-09-18T23:54:24.017Z,10.30
2022-09-18T23:57:26.793Z,10.30
